Time;durP1;ratioP1;P1;durP2;ratioP2;P2;SDS_P1;SDS_P2;PMS_P1;PMS_P2;Temp;Humidity;BMP_temperature;BMP_pressure;BME280_temperature;BME280_humidity;BME280_pressure;Samples;Min_cycle;Max_cycle;Signal;HPM_P1;HPM_P2
2021/07/25 00:00:00;;;;;;;14.35;9.85;;;18.10;97.40;;;;;;5015905;28;20039;-49
2021/07/25 00:02:27;;;;;;;12.40;10.02;;;18.10;97.40;;;;;;5031071;28;20459;-50
2021/07/25 00:04:53;;;;;;;12.63;9.80;;;18.10;97.40;;;;;;5012821;28;20454;-50
2021/07/25 00:07:19;;;;;;;14.00;10.43;;;18.10;97.40;;;;;;5009248;28;20406;-51
2021/07/25 00:09:45;;;;;;;15.02;10.77;;;18.10;97.50;;;;;;5017303;28;20094;-51
2021/07/25 00:12:11;;;;;;;12.80;10.15;;;18.10;97.50;;;;;;5017703;28;20049;-51
2021/07/25 00:14:37;;;;;;;12.40;10.00;;;18.10;97.40;;;;;;5015711;28;20096;-49
2021/07/25 00:17:04;;;;;;;13.65;10.45;;;18.10;97.40;;;;;;5023497;28;20026;-48
2021/07/25 00:19:31;;;;;;;13.00;10.52;;;18.00;97.40;;;;;;5019032;28;20037;-51
2021/07/25 00:21:57;;;;;;;11.82;10.00;;;18.00;97.30;;;;;;4998156;28;20053;-50
2021/07/25 00:24:31;;;;;;;12.73;9.93;;;18.00;97.40;;;;;;5015916;28;20050;-53
2021/07/25 00:26:59;;;;;;;14.18;9.95;;;18.00;97.40;;;;;;4970161;28;20049;-50
2021/07/25 00:29:30;;;;;;;15.88;10.77;;;18.00;97.50;;;;;;5013145;28;20101;-50
2021/07/25 00:32:04;;;;;;;12.60;10.38;;;18.00;97.50;;;;;;5016813;28;20058;-49
2021/07/25 00:34:34;;;;;;;12.82;10.20;;;18.00;97.50;;;;;;5015468;28;20034;-51
2021/07/25 00:37:01;;;;;;;13.65;10.60;;;18.00;97.50;;;;;;5015182;28;20042;-52
2021/07/25 00:39:27;;;;;;;14.82;10.05;;;18.00;97.50;;;;;;5008579;28;20046;-52
2021/07/25 00:41:54;;;;;;;12.55;9.93;;;18.00;97.50;;;;;;5009284;28;20044;-49
2021/07/25 00:44:25;;;;;;;14.77;11.73;;;18.00;97.50;;;;;;5014800;28;20111;-52
2021/07/25 00:46:59;;;;;;;14.27;11.45;;;17.90;97.50;;;;;;5015092;28;20042;-53
2021/07/25 00:49:27;;;;;;;12.77;10.88;;;17.90;97.60;;;;;;5013745;28;20052;-50
2021/07/25 00:51:53;;;;;;;15.55;10.63;;;17.90;97.50;;;;;;5016232;28;20053;-50
2021/07/25 00:54:21;;;;;;;14.27;10.85;;;17.90;97.50;;;;;;5018252;28;20042;-51
2021/07/25 00:56:46;;;;;;;15.82;10.98;;;17.90;97.60;;;;;;4997762;28;20046;-50
2021/07/25 00:59:13;;;;;;;15.63;11.18;;;17.90;97.60;;;;;;5017764;28;20052;-51
2021/07/25 01:01:39;;;;;;;15.52;11.70;;;17.90;97.70;;;;;;5016590;28;20399;-51
2021/07/25 01:05:02;;;;;;;15.98;11.43;;;17.90;97.70;;;;;;5013384;28;20065;-50
2021/07/25 01:07:49;;;;;;;14.70;11.95;;;17.80;97.80;;;;;;4996563;28;20610;-53
2021/07/25 01:10:28;;;;;;;14.07;11.45;;;17.90;97.80;;;;;;4994300;28;20055;-49
2021/07/25 01:13:07;;;;;;;16.25;11.80;;;17.90;97.80;;;;;;5009027;28;20046;-51
2021/07/25 01:15:35;;;;;;;15.50;11.35;;;17.90;97.80;;;;;;5014167;28;20073;-49
2021/07/25 01:18:02;;;;;;;16.23;11.95;;;17.90;97.80;;;;;;5010693;28;20038;-51
2021/07/25 01:20:28;;;;;;;15.75;12.02;;;17.90;97.90;;;;;;5014046;28;20482;-51
2021/07/25 01:22:55;;;;;;;17.70;12.82;;;17.90;97.90;;;;;;5014198;28;20069;-49
2021/07/25 01:25:24;;;;;;;16.15;12.27;;;17.90;97.80;;;;;;5007295;28;20073;-50
2021/07/25 01:28:07;;;;;;;18.48;11.77;;;17.80;97.80;;;;;;5015911;28;20037;-52
2021/07/25 01:30:36;;;;;;;15.48;12.35;;;17.90;97.90;;;;;;5019611;28;20136;-51
2021/07/25 01:33:08;;;;;;;15.15;11.77;;;17.90;97.90;;;;;;5013095;28;20482;-50
2021/07/25 01:35:39;;;;;;;17.77;12.98;;;17.90;97.90;;;;;;5021808;28;20045;-50
2021/07/25 01:38:09;;;;;;;18.20;12.10;;;17.90;97.90;;;;;;5013023;28;20042;-51
2021/07/25 01:40:35;;;;;;;16.20;12.32;;;17.80;97.90;;;;;;5014774;28;20402;-51
2021/07/25 01:43:01;;;;;;;16.25;12.27;;;17.90;97.90;;;;;;5014438;28;20049;-54
2021/07/25 01:45:27;;;;;;;18.50;13.07;;;17.90;97.90;;;;;;5012128;28;20041;-52
2021/07/25 01:47:53;;;;;;;17.60;12.82;;;17.90;98.00;;;;;;5012933;28;20088;-54
2021/07/25 01:50:19;;;;;;;17.75;13.13;;;17.90;98.00;;;;;;5013299;28;20567;-52
2021/07/25 01:52:45;;;;;;;16.42;12.38;;;17.80;98.00;;;;;;5014060;28;20048;-49
2021/07/25 01:55:11;;;;;;;15.90;13.38;;;17.80;97.90;;;;;;5016602;28;20045;-52
2021/07/25 01:57:37;;;;;;;16.23;12.98;;;17.80;97.90;;;;;;5017584;28;20119;-51
2021/07/25 02:00:08;;;;;;;19.05;13.02;;;17.80;97.90;;;;;;5014196;28;20046;-51
2021/07/25 02:02:33;;;;;;;18.27;13.73;;;17.80;97.90;;;;;;5011012;28;20069;-50
2021/07/25 02:04:59;;;;;;;15.50;12.63;;;17.80;97.90;;;;;;5011933;28;20092;-51
2021/07/25 02:07:24;;;;;;;17.17;13.07;;;17.80;97.90;;;;;;5013368;28;20069;-51
2021/07/25 02:09:50;;;;;;;17.70;13.00;;;17.80;98.00;;;;;;5021640;28;20417;-50
2021/07/25 02:12:18;;;;;;;19.58;13.00;;;17.80;98.00;;;;;;5018084;28;20490;-50
2021/07/25 02:14:44;;;;;;;17.67;13.05;;;17.90;98.00;;;;;;5018239;28;20041;-48
2021/07/25 02:17:10;;;;;;;18.40;13.25;;;17.80;98.00;;;;;;5021569;28;20112;-49
2021/07/25 02:19:36;;;;;;;18.48;12.98;;;17.80;98.00;;;;;;5012954;28;20100;-51
2021/07/25 02:22:03;;;;;;;17.10;13.35;;;17.90;98.00;;;;;;5022410;28;20038;-49
2021/07/25 02:24:29;;;;;;;20.88;13.63;;;17.80;98.00;;;;;;5029032;28;20092;-50
2021/07/25 02:26:55;;;;;;;21.60;14.13;;;17.90;98.00;;;;;;5012982;28;20050;-49
2021/07/25 02:29:21;;;;;;;20.00;14.23;;;17.80;98.00;;;;;;5015692;28;20383;-50
2021/07/25 02:31:50;;;;;;;19.80;14.25;;;17.90;98.00;;;;;;5020784;28;20037;-52
2021/07/25 02:34:16;;;;;;;18.38;14.27;;;17.80;98.00;;;;;;5031644;28;20063;-48
2021/07/25 02:36:41;;;;;;;19.83;14.88;;;17.80;98.00;;;;;;5025564;28;20049;-48
2021/07/25 02:39:07;;;;;;;22.20;15.52;;;17.90;98.00;;;;;;5030053;28;20490;-48
2021/07/25 02:41:33;;;;;;;19.80;15.20;;;17.80;98.00;;;;;;5015432;28;20050;-48
2021/07/25 02:44:03;;;;;;;26.98;16.38;;;17.80;98.00;;;;;;5012506;28;20046;-48
2021/07/25 02:46:29;;;;;;;21.67;16.85;;;17.80;98.10;;;;;;5011576;28;20038;-48
2021/07/25 02:48:54;;;;;;;26.42;18.02;;;17.90;98.20;;;;;;5012450;28;20450;-53
2021/07/25 02:51:21;;;;;;;26.35;18.23;;;17.80;98.20;;;;;;5009505;28;20046;-48
2021/07/25 02:53:47;;;;;;;27.02;18.85;;;17.80;98.20;;;;;;5005648;28;20045;-50
2021/07/25 02:56:13;;;;;;;28.33;18.85;;;17.80;98.20;;;;;;5007702;28;20053;-49
2021/07/25 02:58:38;;;;;;;25.70;19.35;;;17.80;98.20;;;;;;5009697;28;20042;-52
2021/07/25 03:01:11;;;;;;;24.45;18.58;;;17.90;98.20;;;;;;4997759;28;20049;-48
2021/07/25 03:03:40;;;;;;;31.10;20.55;;;17.90;98.30;;;;;;4993929;28;20053;-48
2021/07/25 03:06:07;;;;;;;27.15;18.63;;;17.90;98.30;;;;;;4998618;28;20499;-48
2021/07/25 03:08:33;;;;;;;29.13;19.30;;;17.80;98.30;;;;;;5013178;28;20045;-50
2021/07/25 03:10:59;;;;;;;30.08;20.25;;;17.90;98.30;;;;;;5014353;28;20088;-52
2021/07/25 03:13:26;;;;;;;30.17;20.65;;;17.90;98.30;;;;;;5001583;28;20077;-48
2021/07/25 03:15:52;;;;;;;33.13;20.70;;;17.90;98.30;;;;;;5013653;28;20042;-50
2021/07/25 03:18:18;;;;;;;32.13;21.13;;;17.90;98.30;;;;;;5011964;28;20058;-48
2021/07/25 03:20:44;;;;;;;32.85;21.83;;;17.90;98.30;;;;;;5013258;28;20072;-49
2021/07/25 03:23:11;;;;;;;35.40;22.90;;;17.90;98.30;;;;;;5012000;28;20069;-52
2021/07/25 03:25:37;;;;;;;33.63;23.48;;;17.90;98.30;;;;;;4977503;28;20057;-49
2021/07/25 03:28:03;;;;;;;36.67;24.52;;;17.90;98.30;;;;;;5006313;28;20557;-49
2021/07/25 03:30:29;;;;;;;36.13;24.40;;;17.90;98.30;;;;;;5014222;28;20042;-51
2021/07/25 03:32:54;;;;;;;40.15;25.42;;;17.80;98.30;;;;;;5011473;28;20499;-49
2021/07/25 03:35:20;;;;;;;48.80;30.05;;;17.80;98.30;;;;;;5016459;28;20046;-50
2021/07/25 03:37:46;;;;;;;40.17;27.70;;;17.90;98.40;;;;;;5011796;28;20077;-50
2021/07/25 03:40:12;;;;;;;47.90;30.42;;;17.80;98.40;;;;;;5016056;28;20041;-50
2021/07/25 03:42:38;;;;;;;49.42;31.30;;;17.80;98.40;;;;;;5018896;28;20483;-49
2021/07/25 03:45:05;;;;;;;50.08;31.38;;;17.90;98.40;;;;;;5008387;28;20048;-52
2021/07/25 03:47:32;;;;;;;54.78;31.88;;;17.90;98.50;;;;;;5008555;28;20495;-51
2021/07/25 03:49:58;;;;;;;49.97;31.15;;;17.80;98.50;;;;;;5022133;28;20042;-50
2021/07/25 03:52:25;;;;;;;51.85;32.08;;;17.80;98.50;;;;;;5015414;28;20037;-50
2021/07/25 03:54:50;;;;;;;52.50;32.97;;;17.80;98.50;;;;;;5014048;28;20499;-50
2021/07/25 03:57:16;;;;;;;47.28;31.15;;;17.80;98.50;;;;;;5026805;28;20094;-51
2021/07/25 03:59:46;;;;;;;51.13;33.05;;;17.80;98.50;;;;;;5010466;28;20117;-53
2021/07/25 04:02:12;;;;;;;55.35;33.35;;;17.80;98.50;;;;;;5011557;28;20412;-50
2021/07/25 04:04:37;;;;;;;52.53;31.77;;;17.80;98.50;;;;;;5012508;28;20067;-48
2021/07/25 04:07:03;;;;;;;54.20;31.88;;;17.80;98.50;;;;;;5014549;28;20033;-53
2021/07/25 04:09:29;;;;;;;55.95;33.95;;;17.80;98.50;;;;;;5012877;28;20056;-51
2021/07/25 04:11:55;;;;;;;54.03;34.10;;;17.80;98.50;;;;;;5013148;28;20037;-53
2021/07/25 04:14:22;;;;;;;56.95;33.80;;;17.80;98.60;;;;;;4993148;28;20042;-52
2021/07/25 04:16:48;;;;;;;65.32;36.33;;;17.90;98.60;;;;;;5017188;28;20073;-50
2021/07/25 04:19:14;;;;;;;56.75;35.13;;;17.80;98.60;;;;;;5013179;28;20495;-54
2021/07/25 04:21:40;;;;;;;69.55;37.47;;;17.80;98.70;;;;;;5012690;28;20030;-54
2021/07/25 04:24:06;;;;;;;64.80;35.80;;;17.80;98.70;;;;;;5014543;28;21826;-54
2021/07/25 04:26:32;;;;;;;65.97;37.33;;;17.80;98.70;;;;;;5012096;28;20053;-49
2021/07/25 04:29:06;;;;;;;62.08;36.55;;;17.80;98.70;;;;;;4991791;28;20092;-49
2021/07/25 04:31:35;;;;;;;58.90;37.25;;;17.80;98.70;;;;;;5011525;28;20048;-50
2021/07/25 04:34:01;;;;;;;62.60;38.10;;;17.80;98.70;;;;;;5002392;28;20041;-52
2021/07/25 04:36:27;;;;;;;61.65;38.50;;;17.80;98.70;;;;;;5019685;28;20052;-51
2021/07/25 04:38:58;;;;;;;62.15;37.30;;;17.80;98.70;;;;;;5007664;28;20041;-52
2021/07/25 04:41:27;;;;;;;62.83;38.55;;;17.80;98.70;;;;;;5010527;28;20038;-51
2021/07/25 04:44:04;;;;;;;67.65;38.65;;;17.80;98.70;;;;;;4995420;28;20129;-49
2021/07/25 04:46:38;;;;;;;64.75;38.55;;;17.80;98.70;;;;;;5004766;28;20069;-53
2021/07/25 04:49:12;;;;;;;61.97;36.92;;;17.80;98.80;;;;;;5014682;28;20083;-52
2021/07/25 04:51:39;;;;;;;64.47;37.33;;;17.80;98.70;;;;;;4995762;28;20034;-49
2021/07/25 04:54:12;;;;;;;52.20;36.53;;;17.80;98.70;;;;;;5014759;28;20061;-53
2021/07/25 04:56:58;;;;;;;53.35;33.70;;;17.80;98.70;;;;;;5014849;28;20148;-49
2021/07/25 04:59:25;;;;;;;;;;;17.80;98.70;;;;;;5007420;28;20038;-50
2021/07/25 05:01:53;;;;;;;49.45;32.60;;;17.80;98.80;;;;;;5014182;28;19917;-50
2021/07/25 05:04:22;;;;;;;49.70;31.52;;;17.80;98.60;;;;;;5013876;28;20152;-52
2021/07/25 05:06:48;;;;;;;49.42;33.13;;;17.80;98.60;;;;;;5000181;28;20140;-54
2021/07/25 05:09:15;;;;;;;52.65;31.80;;;17.80;98.60;;;;;;5013379;28;20050;-53
2021/07/25 05:11:51;;;;;;;53.33;31.95;;;17.80;98.60;;;;;;5012988;28;20046;-48
2021/07/25 05:14:21;;;;;;;43.42;28.70;;;17.80;98.60;;;;;;5013655;28;20053;-52
2021/07/25 05:17:14;;;;;;;45.05;27.63;;;17.80;98.60;;;;;;5000466;28;20565;-52
2021/07/25 05:19:44;;;;;;;;;;;17.70;98.60;;;;;;5016656;28;20041;-50
2021/07/25 05:22:13;;;;;;;39.85;27.13;;;17.70;98.80;;;;;;5025989;28;19924;-50
2021/07/25 05:24:44;;;;;;;39.13;25.20;;;17.70;98.60;;;;;;5013467;28;20046;-50
2021/07/25 05:27:23;;;;;;;40.67;26.48;;;17.70;98.50;;;;;;5007281;28;20478;-48
2021/07/25 05:29:52;;;;;;;39.15;26.30;;;17.80;98.50;;;;;;5009412;28;20495;-48
2021/07/25 05:32:19;;;;;;;40.67;27.02;;;17.80;98.50;;;;;;5013515;28;20038;-48
2021/07/25 05:34:46;;;;;;;41.50;27.27;;;17.80;98.50;;;;;;5011575;28;20093;-48
2021/07/25 05:37:12;;;;;;;42.25;27.38;;;17.80;98.60;;;;;;5022968;28;20046;-48
2021/07/25 05:39:37;;;;;;;40.42;25.95;;;17.80;98.60;;;;;;5028242;28;20470;-48
2021/07/25 05:42:09;;;;;;;43.92;27.88;;;17.80;98.60;;;;;;5013397;28;20046;-52
2021/07/25 05:44:35;;;;;;;38.97;25.73;;;17.80;98.60;;;;;;4995998;28;20038;-51
2021/07/25 05:47:05;;;;;;;43.22;28.20;;;17.80;98.60;;;;;;5014412;28;20116;-51
2021/07/25 05:49:32;;;;;;;41.72;26.60;;;17.80;98.60;;;;;;5014552;28;20503;-50
2021/07/25 05:51:58;;;;;;;42.75;26.88;;;17.80;98.60;;;;;;5013361;28;20050;-50
2021/07/25 05:54:24;;;;;;;40.50;26.38;;;17.80;98.70;;;;;;5010464;28;20069;-53
2021/07/25 05:56:49;;;;;;;39.25;25.52;;;17.80;98.60;;;;;;5013795;28;20132;-50
2021/07/25 05:59:15;;;;;;;37.60;25.30;;;17.80;98.60;;;;;;5013427;28;20558;-50
2021/07/25 06:01:40;;;;;;;35.63;25.25;;;17.80;98.70;;;;;;5010666;28;20435;-54
2021/07/25 06:04:06;;;;;;;36.28;25.25;;;17.80;98.70;;;;;;5013342;28;20065;-53
2021/07/25 06:06:33;;;;;;;40.35;27.73;;;17.80;98.70;;;;;;5013422;28;20045;-51
2021/07/25 06:08:58;;;;;;;46.58;29.50;;;17.80;98.70;;;;;;5016307;28;20091;-51
2021/07/25 06:11:24;;;;;;;54.50;32.35;;;17.80;98.60;;;;;;5005247;28;20062;-48
2021/07/25 06:13:51;;;;;;;61.38;36.03;;;17.80;98.70;;;;;;5001041;28;20050;-48
2021/07/25 06:16:17;;;;;;;63.92;39.00;;;17.80;98.70;;;;;;4999691;28;20088;-48
2021/07/25 06:18:48;;;;;;;74.75;44.50;;;17.80;98.70;;;;;;5007489;28;20048;-49
2021/07/25 06:21:14;;;;;;;87.32;49.70;;;17.80;98.70;;;;;;5012987;28;20120;-49
2021/07/25 06:23:41;;;;;;;87.85;49.47;;;17.80;98.70;;;;;;5030823;28;20041;-48
2021/07/25 06:26:09;;;;;;;85.35;49.17;;;17.90;98.70;;;;;;5020490;28;20033;-49
2021/07/25 06:28:36;;;;;;;89.95;52.00;;;17.90;98.60;;;;;;5015205;28;20044;-48
2021/07/25 06:31:03;;;;;;;98.03;53.05;;;17.90;98.60;;;;;;5020497;28;20482;-51
2021/07/25 06:33:29;;;;;;;87.22;51.75;;;18.00;98.70;;;;;;5010954;28;20029;-49
2021/07/25 06:35:55;;;;;;;98.38;56.05;;;18.00;98.60;;;;;;5009905;28;20061;-51
2021/07/25 06:38:21;;;;;;;95.90;52.35;;;18.00;98.60;;;;;;5013781;28;20060;-51
2021/07/25 06:40:57;;;;;;;89.97;50.65;;;18.10;98.60;;;;;;5007942;28;20042;-50
2021/07/25 06:43:23;;;;;;;102.88;56.72;;;18.10;98.60;;;;;;5001324;28;20049;-50
2021/07/25 06:45:49;;;;;;;109.78;57.97;;;18.20;98.70;;;;;;5011120;28;20038;-48
2021/07/25 06:48:20;;;;;;;113.25;60.33;;;18.20;98.60;;;;;;5011896;28;20045;-50
2021/07/25 06:50:50;;;;;;;115.80;62.15;;;18.30;98.60;;;;;;5005870;28;20061;-51
2021/07/25 06:53:20;;;;;;;112.97;60.40;;;18.30;98.70;;;;;;5008751;28;20121;-53
2021/07/25 06:55:48;;;;;;;113.90;63.53;;;18.40;98.70;;;;;;5008733;28;20472;-52
2021/07/25 06:58:14;;;;;;;110.28;64.53;;;18.40;98.60;;;;;;5010591;28;20555;-53
2021/07/25 07:00:39;;;;;;;118.63;65.72;;;18.50;98.60;;;;;;5009520;28;20041;-53
2021/07/25 07:03:05;;;;;;;118.93;64.00;;;18.60;98.50;;;;;;5010673;28;20487;-52
2021/07/25 07:05:32;;;;;;;109.97;63.15;;;18.70;98.60;;;;;;5009122;28;20045;-53
2021/07/25 07:07:59;;;;;;;116.00;66.28;;;18.80;98.50;;;;;;5010383;28;20045;-53
2021/07/25 07:10:34;;;;;;;117.43;67.57;;;18.80;98.30;;;;;;5008517;28;20084;-52
2021/07/25 07:13:06;;;;;;;128.70;70.47;;;18.90;98.30;;;;;;5002029;28;20053;-50
2021/07/25 07:15:33;;;;;;;123.28;68.60;;;18.90;98.20;;;;;;5009909;28;20518;-51
2021/07/25 07:17:59;;;;;;;152.32;76.90;;;19.00;98.20;;;;;;5010308;28;20048;-50
2021/07/25 07:20:26;;;;;;;139.90;73.53;;;19.00;98.50;;;;;;5007953;28;20046;-50
2021/07/25 07:22:56;;;;;;;130.00;71.78;;;19.10;98.40;;;;;;5002175;28;20133;-51
2021/07/25 07:25:23;;;;;;;116.80;67.03;;;19.10;98.40;;;;;;5003698;28;20041;-53
2021/07/25 07:27:50;;;;;;;119.43;66.20;;;19.10;98.30;;;;;;5013201;28;20042;-51
2021/07/25 07:30:15;;;;;;;103.28;63.10;;;19.20;98.20;;;;;;5009970;28;20098;-50
2021/07/25 07:32:42;;;;;;;102.22;61.58;;;19.20;98.10;;;;;;5008177;28;20096;-51
2021/07/25 07:35:08;;;;;;;107.10;64.15;;;19.20;97.80;;;;;;5015126;28;20057;-52
2021/07/25 07:37:33;;;;;;;107.65;63.88;;;19.20;97.70;;;;;;5019405;28;20644;-50
2021/07/25 07:39:59;;;;;;;102.85;61.58;;;19.20;97.40;;;;;;5016318;28;20553;-49
2021/07/25 07:42:25;;;;;;;114.07;66.32;;;19.30;97.60;;;;;;5014591;28;20042;-49
2021/07/25 07:44:51;;;;;;;105.10;61.72;;;19.30;97.60;;;;;;5009008;28;20124;-50
2021/07/25 07:47:16;;;;;;;99.50;62.65;;;19.40;97.80;;;;;;5017244;28;20498;-52
2021/07/25 07:49:42;;;;;;;96.35;57.83;;;19.50;97.70;;;;;;5010192;28;20040;-53
2021/07/25 07:52:12;;;;;;;94.78;61.38;;;19.60;97.50;;;;;;5016329;28;20460;-50
2021/07/25 07:54:38;;;;;;;102.25;62.88;;;19.60;97.50;;;;;;5013455;28;20120;-50
2021/07/25 07:57:03;;;;;;;96.00;60.03;;;19.60;97.40;;;;;;5013797;28;20050;-53
2021/07/25 07:59:32;;;;;;;97.25;61.83;;;19.70;97.40;;;;;;5017829;28;20451;-49
2021/07/25 08:01:59;;;;;;;102.10;64.55;;;19.70;97.40;;;;;;5016708;28;20053;-50
2021/07/25 08:04:25;;;;;;;92.55;61.65;;;19.80;97.30;;;;;;4998779;28;20054;-51
2021/07/25 08:06:51;;;;;;;98.80;59.05;;;19.80;97.20;;;;;;5015793;28;20460;-52
2021/07/25 08:09:17;;;;;;;96.07;60.03;;;19.80;97.00;;;;;;5021521;28;20153;-48
2021/07/25 08:11:43;;;;;;;91.13;59.15;;;19.80;96.90;;;;;;5023107;28;20037;-51
2021/07/25 08:14:19;;;;;;;97.70;60.60;;;19.80;96.60;;;;;;5022750;28;20042;-55
2021/07/25 08:16:46;;;;;;;94.55;61.25;;;19.80;96.70;;;;;;5017827;28;20497;-50
2021/07/25 08:19:12;;;;;;;90.28;58.60;;;19.80;96.70;;;;;;5017442;28;20042;-48
2021/07/25 08:21:39;;;;;;;94.22;62.17;;;19.80;96.70;;;;;;5028999;28;20041;-51
2021/07/25 08:24:07;;;;;;;86.28;58.70;;;19.90;96.70;;;;;;5020285;28;20525;-50
2021/07/25 08:26:33;;;;;;;85.18;57.30;;;19.90;96.10;;;;;;5013462;28;20034;-49
2021/07/25 08:28:58;;;;;;;79.95;55.90;;;19.90;96.20;;;;;;5014273;28;20041;-49
2021/07/25 08:31:24;;;;;;;75.28;53.67;;;20.00;96.00;;;;;;5019256;28;20049;-48
2021/07/25 08:33:50;;;;;;;84.10;56.53;;;20.00;95.60;;;;;;5010733;28;21019;-50
2021/07/25 08:36:16;;;;;;;76.78;53.35;;;20.10;95.40;;;;;;5018093;28;20044;-52
2021/07/25 08:38:42;;;;;;;84.60;57.20;;;20.10;95.40;;;;;;5013850;28;20103;-49
2021/07/25 08:41:47;;;;;;;83.30;56.38;;;20.20;95.40;;;;;;5017916;28;20114;-51
2021/07/25 08:44:34;;;;;;;80.97;54.55;;;20.40;95.60;;;;;;5011605;28;20050;-50
2021/07/25 08:47:01;;;;;;;61.58;45.30;;;20.60;95.60;;;;;;5006952;28;20061;-51
2021/07/25 08:49:39;;;;;;;61.47;45.13;;;20.70;94.90;;;;;;5005986;28;20049;-49
2021/07/25 08:52:06;;;;;;;57.33;44.28;;;20.90;94.40;;;;;;5021439;28;20248;-48
2021/07/25 08:54:34;;;;;;;55.70;39.65;;;21.00;94.50;;;;;;5011608;28;20453;-51
2021/07/25 08:57:00;;;;;;;49.85;36.55;;;21.10;94.30;;;;;;5006490;28;20045;-48
2021/07/25 08:59:29;;;;;;;45.40;35.28;;;21.20;93.80;;;;;;4999551;28;20506;-48
2021/07/25 09:02:00;;;;;;;45.50;34.20;;;21.20;93.10;;;;;;4999890;28;20273;-50
2021/07/25 09:04:25;;;;;;;42.42;33.17;;;21.20;92.70;;;;;;5008454;28;20057;-53
2021/07/25 09:06:51;;;;;;;40.38;30.75;;;21.20;92.50;;;;;;5011620;28;20041;-50
2021/07/25 09:09:19;;;;;;;39.10;31.05;;;21.20;92.20;;;;;;5013779;28;20462;-51
2021/07/25 09:11:49;;;;;;;39.10;29.95;;;21.10;92.20;;;;;;5011436;28;20114;-54
2021/07/25 09:14:14;;;;;;;40.35;28.92;;;21.10;92.20;;;;;;5001820;28;20266;-54
2021/07/25 09:16:40;;;;;;;39.70;30.17;;;21.20;92.50;;;;;;5007616;28;20455;-53
2021/07/25 09:19:06;;;;;;;40.63;30.77;;;21.10;92.40;;;;;;5007827;28;20044;-52
2021/07/25 09:21:43;;;;;;;38.55;30.02;;;21.20;92.50;;;;;;4991650;28;20041;-55
2021/07/25 09:24:27;;;;;;;38.22;30.17;;;21.30;92.60;;;;;;5010978;28;20100;-52
2021/07/25 09:26:59;;;;;;;37.47;29.15;;;21.40;92.40;;;;;;5009964;28;20406;-53
2021/07/25 09:29:27;;;;;;;38.85;29.55;;;21.50;92.40;;;;;;5012124;28;20048;-52
2021/07/25 09:32:13;;;;;;;37.83;29.92;;;21.60;92.50;;;;;;5011291;28;20033;-52
2021/07/25 09:34:41;;;;;;;35.50;27.90;;;21.60;92.40;;;;;;5021917;28;20042;-51
2021/07/25 09:37:15;;;;;;;35.03;27.02;;;21.80;91.80;;;;;;5012889;28;20034;-52
2021/07/25 09:39:43;;;;;;;32.38;25.65;;;21.90;91.80;;;;;;5020645;28;20038;-51
2021/07/25 09:42:10;;;;;;;33.00;26.50;;;22.10;91.50;;;;;;5017352;28;20485;-53
2021/07/25 09:44:46;;;;;;;32.90;25.00;;;22.20;91.10;;;;;;5015499;28;20049;-53
2021/07/25 09:47:33;;;;;;;34.33;26.13;;;22.20;91.10;;;;;;5016365;28;20045;-54
2021/07/25 09:50:01;;;;;;;29.83;24.90;;;22.30;90.30;;;;;;5026163;28;20522;-51
2021/07/25 09:52:45;;;;;;;29.25;24.50;;;22.20;90.50;;;;;;5011703;28;20053;-48
2021/07/25 09:55:11;;;;;;;30.50;25.20;;;22.10;90.50;;;;;;5008118;28;20115;-52
2021/07/25 09:57:36;;;;;;;30.95;25.45;;;22.00;90.60;;;;;;5011992;28;20498;-48
2021/07/25 10:00:10;;;;;;;30.40;25.40;;;22.00;90.40;;;;;;5011955;28;20045;-50
2021/07/25 10:02:38;;;;;;;30.05;25.13;;;22.10;90.60;;;;;;5011854;28;20034;-52
2021/07/25 10:05:17;;;;;;;32.42;24.80;;;22.20;90.70;;;;;;5010787;28;20069;-54
2021/07/25 10:07:44;;;;;;;29.25;23.90;;;22.10;90.80;;;;;;5011152;28;20045;-50
2021/07/25 10:10:13;;;;;;;31.33;23.02;;;22.10;90.60;;;;;;4991018;28;20633;-49
2021/07/25 10:12:40;;;;;;;27.80;21.60;;;22.00;90.80;;;;;;5012349;28;20060;-53
2021/07/25 10:15:09;;;;;;;27.90;23.48;;;21.90;90.90;;;;;;5011257;28;20172;-50
2021/07/25 10:17:42;;;;;;;29.33;24.17;;;21.80;91.10;;;;;;5012576;28;20045;-52
2021/07/25 10:20:10;;;;;;;35.58;24.38;;;21.70;91.40;;;;;;5013569;28;20068;-51
2021/07/25 10:22:38;;;;;;;31.92;26.00;;;21.60;91.50;;;;;;5012012;28;20049;-52
2021/07/25 10:25:06;;;;;;;29.98;25.20;;;21.50;91.60;;;;;;5016417;28;20045;-52
2021/07/25 10:27:35;;;;;;;28.50;23.98;;;21.50;91.80;;;;;;5016139;28;20065;-52
2021/07/25 10:30:09;;;;;;;30.40;23.85;;;21.40;91.90;;;;;;5015846;28;20041;-53
2021/07/25 10:32:37;;;;;;;29.45;22.35;;;21.30;92.20;;;;;;5023096;28;20091;-52
2021/07/25 10:35:06;;;;;;;27.65;22.73;;;21.20;92.20;;;;;;5016997;28;20487;-54
2021/07/25 10:37:34;;;;;;;27.25;21.98;;;21.10;92.20;;;;;;5007131;28;20410;-53
2021/07/25 10:40:01;;;;;;;26.92;21.27;;;21.00;92.40;;;;;;5004422;28;20041;-52
2021/07/25 10:42:29;;;;;;;26.17;21.77;;;21.00;92.50;;;;;;5017374;28;20041;-49
2021/07/25 10:44:55;;;;;;;33.90;23.75;;;20.90;92.50;;;;;;5015808;28;20387;-54
2021/07/25 10:47:25;;;;;;;35.55;24.40;;;20.90;92.70;;;;;;5005860;28;20044;-52
2021/07/25 10:50:09;;;;;;;28.60;24.27;;;20.80;93.10;;;;;;5012267;28;20033;-52
2021/07/25 10:52:52;;;;;;;32.05;25.00;;;20.80;93.50;;;;;;5008424;28;20524;-51
2021/07/25 10:55:41;;;;;;;30.17;24.40;;;20.90;93.70;;;;;;5010212;28;20545;-54
2021/07/25 10:58:17;;;;;;;32.45;25.58;;;20.80;93.60;;;;;;5007528;28;20045;-52
2021/07/25 11:00:52;;;;;;;32.55;26.17;;;20.80;93.80;;;;;;5011669;28;20113;-54
2021/07/25 11:03:30;;;;;;;33.72;26.20;;;20.70;94.00;;;;;;5008552;28;20112;-51
2021/07/25 11:05:59;;;;;;;35.97;26.45;;;20.70;94.40;;;;;;5014378;28;20629;-52
2021/07/25 11:08:32;;;;;;;31.88;25.27;;;20.70;94.40;;;;;;5013467;28;20532;-52
2021/07/25 11:10:58;;;;;;;32.00;25.83;;;20.80;94.40;;;;;;5009737;28;20037;-52
2021/07/25 11:13:42;;;;;;;33.10;27.10;;;20.80;94.50;;;;;;5010909;28;20076;-52
2021/07/25 11:16:32;;;;;;;30.70;25.42;;;20.70;94.90;;;;;;5010318;28;20046;-53
2021/07/25 11:19:06;;;;;;;29.77;24.05;;;20.70;95.00;;;;;;5017448;28;20038;-53
2021/07/25 11:21:40;;;;;;;29.60;25.40;;;20.70;94.60;;;;;;5010393;28;20073;-52
2021/07/25 11:24:18;;;;;;;31.55;25.52;;;20.70;94.60;;;;;;5010342;28;20046;-52
2021/07/25 11:26:51;;;;;;;32.83;26.75;;;20.70;94.80;;;;;;5010232;28;20160;-52
2021/07/25 11:29:22;;;;;;;35.42;27.38;;;20.70;94.90;;;;;;5009041;28;20056;-53
2021/07/25 11:31:51;;;;;;;30.95;25.20;;;20.70;95.00;;;;;;5002367;28;20038;-52
2021/07/25 11:34:29;;;;;;;34.83;26.95;;;20.70;95.20;;;;;;5013703;28;20475;-51
2021/07/25 11:36:57;;;;;;;32.33;26.98;;;20.70;95.10;;;;;;5013655;28;20462;-51
2021/07/25 11:39:23;;;;;;;35.88;28.00;;;20.70;95.10;;;;;;5015373;28;20065;-51
2021/07/25 11:41:50;;;;;;;32.38;26.98;;;20.80;95.20;;;;;;5025251;28;20525;-50
2021/07/25 11:44:27;;;;;;;37.50;29.48;;;20.80;95.30;;;;;;5002308;28;20049;-53
2021/07/25 11:46:53;;;;;;;36.50;27.63;;;20.80;95.50;;;;;;5021206;28;20548;-53
2021/07/25 11:49:29;;;;;;;41.38;31.17;;;20.90;95.50;;;;;;5016115;28;20039;-52
2021/07/25 11:51:55;;;;;;;37.10;29.92;;;20.90;95.40;;;;;;5007231;28;20045;-54
2021/07/25 11:54:33;;;;;;;37.85;30.15;;;20.90;95.50;;;;;;5005646;28;20040;-53
2021/07/25 11:57:03;;;;;;;37.47;29.92;;;21.00;95.60;;;;;;5017556;28;20073;-51
2021/07/25 11:59:46;;;;;;;37.22;30.77;;;21.00;95.60;;;;;;5020191;28;20049;-48
2021/07/25 12:02:12;;;;;;;36.20;29.98;;;21.00;95.70;;;;;;5014916;28;20053;-52
2021/07/25 12:04:44;;;;;;;40.20;30.75;;;21.00;95.70;;;;;;5014895;28;20052;-51
2021/07/25 12:07:12;;;;;;;37.70;30.60;;;21.00;95.40;;;;;;5015348;28;20068;-52
2021/07/25 12:09:42;;;;;;;35.35;30.35;;;21.10;95.40;;;;;;5015116;28;20042;-49
2021/07/25 12:12:10;;;;;;;35.67;29.02;;;21.10;95.50;;;;;;5005412;28;20128;-52
2021/07/25 12:14:40;;;;;;;36.22;30.52;;;21.10;95.50;;;;;;5014398;28;20497;-50
2021/07/25 12:17:06;;;;;;;38.88;31.88;;;21.10;95.50;;;;;;5018497;28;20046;-50
2021/07/25 12:19:40;;;;;;;38.72;32.38;;;21.20;95.50;;;;;;5015618;28;20038;-50
2021/07/25 12:22:12;;;;;;;36.40;30.85;;;21.20;95.70;;;;;;5014943;28;20042;-52
2021/07/25 12:24:43;;;;;;;37.88;30.63;;;21.10;95.50;;;;;;5023961;28;20049;-50
2021/07/25 12:27:30;;;;;;;36.03;30.33;;;21.10;95.50;;;;;;5011504;28;20117;-53
2021/07/25 12:30:08;;;;;;;43.20;29.90;;;21.10;95.30;;;;;;5013816;28;20048;-54
2021/07/25 12:32:34;;;;;;;35.88;29.77;;;21.10;95.20;;;;;;5012291;28;20041;-50
2021/07/25 12:35:09;;;;;;;37.35;30.20;;;21.10;95.30;;;;;;5020002;28;20143;-50